sensor_id;sensor_type;location;lat;lon;timestamp;P1;durP1;ratioP1;P2;durP2;ratioP2
19235;SDS011;9752;54.270;12.470;2023-06-14T00:04:23;11.40;;;7.73;;
19235;SDS011;9752;54.270;12.470;2023-06-14T00:09:25;9.47;;;6.90;;
19235;SDS011;9752;54.270;12.470;2023-06-14T00:14:28;10.33;;;7.50;;
19235;SDS011;9752;54.270;12.470;2023-06-14T00:19:30;12.13;;;8.00;;
19235;SDS011;9752;54.270;12.470;2023-06-14T00:24:33;7.63;;;7.03;;
19235;SDS011;9752;54.270;12.470;2023-06-14T00:29:36;9.40;;;7.87;;
19235;SDS011;9752;54.270;12.470;2023-06-14T00:34:38;10.67;;;7.97;;
19235;SDS011;9752;54.270;12.470;2023-06-14T00:39:42;8.63;;;7.83;;
19235;SDS011;9752;54.270;12.470;2023-06-14T00:44:45;9.23;;;7.57;;
19235;SDS011;9752;54.270;12.470;2023-06-14T00:49:47;11.10;;;8.37;;
19235;SDS011;9752;54.270;12.470;2023-06-14T00:54:49;9.47;;;7.47;;
19235;SDS011;9752;54.270;12.470;2023-06-14T00:59:52;11.07;;;8.17;;
19235;SDS011;9752;54.270;12.470;2023-06-14T01:04:55;9.20;;;7.30;;
19235;SDS011;9752;54.270;12.470;2023-06-14T01:10:02;11.37;;;7.37;;
19235;SDS011;9752;54.270;12.470;2023-06-14T01:15:15;12.63;;;8.27;;
19235;SDS011;9752;54.270;12.470;2023-06-14T01:20:19;12.73;;;8.33;;
19235;SDS011;9752;54.270;12.470;2023-06-14T01:25:24;9.13;;;7.20;;
19235;SDS011;9752;54.270;12.470;2023-06-14T01:30:26;9.07;;;7.97;;
19235;SDS011;9752;54.270;12.470;2023-06-14T01:35:28;10.67;;;8.40;;
19235;SDS011;9752;54.270;12.470;2023-06-14T01:40:31;12.60;;;8.17;;
19235;SDS011;9752;54.270;12.470;2023-06-14T01:45:36;12.03;;;7.47;;
19235;SDS011;9752;54.270;12.470;2023-06-14T01:50:39;12.47;;;7.47;;
19235;SDS011;9752;54.270;12.470;2023-06-14T01:55:42;8.53;;;7.57;;
19235;SDS011;9752;54.270;12.470;2023-06-14T02:00:44;10.53;;;7.57;;
19235;SDS011;9752;54.270;12.470;2023-06-14T02:05:47;9.77;;;7.97;;
19235;SDS011;9752;54.270;12.470;2023-06-14T02:10:50;10.90;;;7.87;;
19235;SDS011;9752;54.270;12.470;2023-06-14T02:15:52;9.37;;;7.90;;
19235;SDS011;9752;54.270;12.470;2023-06-14T02:20:55;13.67;;;7.43;;
19235;SDS011;9752;54.270;12.470;2023-06-14T02:25:58;9.30;;;7.30;;
19235;SDS011;9752;54.270;12.470;2023-06-14T02:31:00;13.73;;;7.90;;
19235;SDS011;9752;54.270;12.470;2023-06-14T02:36:02;7.57;;;6.80;;
19235;SDS011;9752;54.270;12.470;2023-06-14T02:41:05;9.30;;;8.27;;
19235;SDS011;9752;54.270;12.470;2023-06-14T02:46:07;11.67;;;8.83;;
19235;SDS011;9752;54.270;12.470;2023-06-14T02:51:09;10.03;;;7.27;;
19235;SDS011;9752;54.270;12.470;2023-06-14T02:56:12;8.93;;;7.93;;
19235;SDS011;9752;54.270;12.470;2023-06-14T03:01:14;11.80;;;9.23;;
19235;SDS011;9752;54.270;12.470;2023-06-14T03:06:18;10.53;;;8.10;;
19235;SDS011;9752;54.270;12.470;2023-06-14T03:11:24;14.07;;;7.73;;
19235;SDS011;9752;54.270;12.470;2023-06-14T03:16:26;11.80;;;7.80;;
19235;SDS011;9752;54.270;12.470;2023-06-14T03:21:30;13.53;;;8.63;;
19235;SDS011;9752;54.270;12.470;2023-06-14T03:26:36;12.53;;;8.87;;
19235;SDS011;9752;54.270;12.470;2023-06-14T03:31:41;11.60;;;8.00;;
19235;SDS011;9752;54.270;12.470;2023-06-14T03:36:58;9.53;;;7.20;;
19235;SDS011;9752;54.270;12.470;2023-06-14T03:42:01;16.17;;;8.77;;
19235;SDS011;9752;54.270;12.470;2023-06-14T03:47:04;14.40;;;8.77;;
19235;SDS011;9752;54.270;12.470;2023-06-14T03:52:06;15.33;;;8.60;;
19235;SDS011;9752;54.270;12.470;2023-06-14T03:57:12;11.57;;;7.93;;
19235;SDS011;9752;54.270;12.470;2023-06-14T04:02:16;14.30;;;8.73;;
19235;SDS011;9752;54.270;12.470;2023-06-14T04:07:18;10.23;;;7.67;;
19235;SDS011;9752;54.270;12.470;2023-06-14T04:12:22;11.53;;;7.93;;
19235;SDS011;9752;54.270;12.470;2023-06-14T04:17:23;11.03;;;8.30;;
19235;SDS011;9752;54.270;12.470;2023-06-14T04:22:26;14.17;;;7.23;;
19235;SDS011;9752;54.270;12.470;2023-06-14T04:27:32;9.17;;;7.17;;
19235;SDS011;9752;54.270;12.470;2023-06-14T04:32:37;11.40;;;7.60;;
19235;SDS011;9752;54.270;12.470;2023-06-14T04:37:40;12.40;;;6.30;;
19235;SDS011;9752;54.270;12.470;2023-06-14T04:42:45;11.40;;;7.07;;
19235;SDS011;9752;54.270;12.470;2023-06-14T04:47:50;11.43;;;6.63;;
19235;SDS011;9752;54.270;12.470;2023-06-14T04:52:57;8.53;;;7.57;;
19235;SDS011;9752;54.270;12.470;2023-06-14T04:58:02;12.67;;;8.00;;
19235;SDS011;9752;54.270;12.470;2023-06-14T05:03:05;10.00;;;7.53;;
19235;SDS011;9752;54.270;12.470;2023-06-14T05:08:07;9.10;;;7.80;;
19235;SDS011;9752;54.270;12.470;2023-06-14T05:13:11;10.90;;;7.23;;
19235;SDS011;9752;54.270;12.470;2023-06-14T05:18:12;11.20;;;7.93;;
19235;SDS011;9752;54.270;12.470;2023-06-14T05:23:15;10.33;;;8.00;;
19235;SDS011;9752;54.270;12.470;2023-06-14T05:28:18;10.47;;;7.80;;
19235;SDS011;9752;54.270;12.470;2023-06-14T05:33:20;12.67;;;8.57;;
19235;SDS011;9752;54.270;12.470;2023-06-14T05:38:22;9.47;;;8.57;;
19235;SDS011;9752;54.270;12.470;2023-06-14T05:43:25;12.07;;;8.17;;
19235;SDS011;9752;54.270;12.470;2023-06-14T05:48:27;8.73;;;7.93;;
19235;SDS011;9752;54.270;12.470;2023-06-14T05:53:29;10.30;;;8.93;;
19235;SDS011;9752;54.270;12.470;2023-06-14T05:58:32;11.03;;;9.50;;
19235;SDS011;9752;54.270;12.470;2023-06-14T06:03:34;9.97;;;9.07;;
19235;SDS011;9752;54.270;12.470;2023-06-14T06:08:36;10.40;;;9.50;;
19235;SDS011;9752;54.270;12.470;2023-06-14T06:13:39;9.97;;;9.27;;
19235;SDS011;9752;54.270;12.470;2023-06-14T06:18:40;11.63;;;10.43;;
19235;SDS011;9752;54.270;12.470;2023-06-14T06:23:42;11.67;;;10.53;;
19235;SDS011;9752;54.270;12.470;2023-06-14T06:28:45;11.80;;;10.47;;
19235;SDS011;9752;54.270;12.470;2023-06-14T06:33:47;11.87;;;10.93;;
19235;SDS011;9752;54.270;12.470;2023-06-14T06:38:48;11.87;;;10.73;;
19235;SDS011;9752;54.270;12.470;2023-06-14T06:43:51;12.07;;;10.67;;
19235;SDS011;9752;54.270;12.470;2023-06-14T06:48:53;11.93;;;10.93;;
19235;SDS011;9752;54.270;12.470;2023-06-14T06:53:55;12.37;;;11.13;;
19235;SDS011;9752;54.270;12.470;2023-06-14T06:58:58;15.33;;;13.70;;
19235;SDS011;9752;54.270;12.470;2023-06-14T07:04:00;14.33;;;13.27;;
19235;SDS011;9752;54.270;12.470;2023-06-14T07:09:03;14.27;;;13.17;;
19235;SDS011;9752;54.270;12.470;2023-06-14T07:14:09;13.10;;;12.30;;
19235;SDS011;9752;54.270;12.470;2023-06-14T07:19:11;14.00;;;12.90;;
19235;SDS011;9752;54.270;12.470;2023-06-14T07:24:13;15.57;;;14.67;;
19235;SDS011;9752;54.270;12.470;2023-06-14T07:29:16;16.50;;;15.00;;
19235;SDS011;9752;54.270;12.470;2023-06-14T07:34:18;17.00;;;15.70;;
19235;SDS011;9752;54.270;12.470;2023-06-14T07:39:19;17.77;;;16.37;;
19235;SDS011;9752;54.270;12.470;2023-06-14T07:44:23;17.53;;;16.40;;
19235;SDS011;9752;54.270;12.470;2023-06-14T07:49:25;17.77;;;16.37;;
19235;SDS011;9752;54.270;12.470;2023-06-14T07:54:26;17.53;;;16.53;;
19235;SDS011;9752;54.270;12.470;2023-06-14T07:59:31;17.30;;;16.27;;
19235;SDS011;9752;54.270;12.470;2023-06-14T08:04:33;18.57;;;17.10;;
19235;SDS011;9752;54.270;12.470;2023-06-14T08:09:35;17.90;;;16.70;;
19235;SDS011;9752;54.270;12.470;2023-06-14T08:14:42;16.80;;;15.80;;
19235;SDS011;9752;54.270;12.470;2023-06-14T08:19:44;18.07;;;16.80;;
19235;SDS011;9752;54.270;12.470;2023-06-14T08:24:46;16.67;;;15.57;;
19235;SDS011;9752;54.270;12.470;2023-06-14T08:29:49;16.53;;;15.60;;
19235;SDS011;9752;54.270;12.470;2023-06-14T08:34:51;16.90;;;15.97;;
19235;SDS011;9752;54.270;12.470;2023-06-14T08:39:53;17.40;;;16.10;;
19235;SDS011;9752;54.270;12.470;2023-06-14T08:44:57;17.00;;;15.93;;
19235;SDS011;9752;54.270;12.470;2023-06-14T08:49:59;16.20;;;15.03;;
19235;SDS011;9752;54.270;12.470;2023-06-14T08:55:01;15.90;;;15.00;;
19235;SDS011;9752;54.270;12.470;2023-06-14T09:00:05;16.63;;;15.40;;
19235;SDS011;9752;54.270;12.470;2023-06-14T09:05:12;15.13;;;13.87;;
19235;SDS011;9752;54.270;12.470;2023-06-14T09:10:14;16.47;;;15.43;;
19235;SDS011;9752;54.270;12.470;2023-06-14T09:15:18;17.33;;;16.00;;
19235;SDS011;9752;54.270;12.470;2023-06-14T09:20:20;16.40;;;15.40;;
19235;SDS011;9752;54.270;12.470;2023-06-14T09:25:22;16.57;;;15.67;;
19235;SDS011;9752;54.270;12.470;2023-06-14T09:30:26;16.77;;;15.87;;
19235;SDS011;9752;54.270;12.470;2023-06-14T09:35:28;16.83;;;15.70;;
19235;SDS011;9752;54.270;12.470;2023-06-14T09:40:33;17.80;;;16.70;;
19235;SDS011;9752;54.270;12.470;2023-06-14T09:45:38;17.50;;;16.60;;
19235;SDS011;9752;54.270;12.470;2023-06-14T09:50:41;16.50;;;15.40;;
19235;SDS011;9752;54.270;12.470;2023-06-14T09:55:43;16.07;;;15.03;;
19235;SDS011;9752;54.270;12.470;2023-06-14T10:00:47;15.93;;;15.03;;
19235;SDS011;9752;54.270;12.470;2023-06-14T10:05:51;15.07;;;13.83;;
19235;SDS011;9752;54.270;12.470;2023-06-14T10:10:55;15.20;;;14.30;;
19235;SDS011;9752;54.270;12.470;2023-06-14T10:16:00;14.87;;;13.97;;
19235;SDS011;9752;54.270;12.470;2023-06-14T10:21:13;16.60;;;15.77;;
19235;SDS011;9752;54.270;12.470;2023-06-14T10:26:20;16.77;;;15.97;;
19235;SDS011;9752;54.270;12.470;2023-06-14T10:31:24;17.00;;;16.20;;
19235;SDS011;9752;54.270;12.470;2023-06-14T10:36:41;17.27;;;16.37;;
19235;SDS011;9752;54.270;12.470;2023-06-14T10:41:50;17.33;;;16.20;;
19235;SDS011;9752;54.270;12.470;2023-06-14T10:46:55;16.53;;;15.63;;
19235;SDS011;9752;54.270;12.470;2023-06-14T10:52:00;16.83;;;15.80;;
19235;SDS011;9752;54.270;12.470;2023-06-14T10:57:06;16.63;;;15.73;;
19235;SDS011;9752;54.270;12.470;2023-06-14T11:02:17;17.17;;;15.97;;
19235;SDS011;9752;54.270;12.470;2023-06-14T11:07:36;18.00;;;16.67;;
19235;SDS011;9752;54.270;12.470;2023-06-14T11:12:49;16.47;;;15.60;;
19235;SDS011;9752;54.270;12.470;2023-06-14T11:17:54;16.37;;;15.40;;
19235;SDS011;9752;54.270;12.470;2023-06-14T11:22:58;16.43;;;15.53;;
19235;SDS011;9752;54.270;12.470;2023-06-14T11:28:00;16.70;;;15.80;;
19235;SDS011;9752;54.270;12.470;2023-06-14T11:33:03;17.07;;;15.93;;
19235;SDS011;9752;54.270;12.470;2023-06-14T11:38:05;16.90;;;15.90;;
19235;SDS011;9752;54.270;12.470;2023-06-14T11:43:06;17.90;;;16.73;;
19235;SDS011;9752;54.270;12.470;2023-06-14T11:48:10;16.90;;;16.13;;
19235;SDS011;9752;54.270;12.470;2023-06-14T11:53:11;17.60;;;16.50;;
19235;SDS011;9752;54.270;12.470;2023-06-14T11:58:13;17.30;;;16.27;;
19235;SDS011;9752;54.270;12.470;2023-06-14T12:03:17;17.57;;;16.77;;
19235;SDS011;9752;54.270;12.470;2023-06-14T12:08:18;17.53;;;16.60;;
19235;SDS011;9752;54.270;12.470;2023-06-14T12:13:21;17.57;;;16.57;;
19235;SDS011;9752;54.270;12.470;2023-06-14T12:18:32;17.33;;;16.40;;
19235;SDS011;9752;54.270;12.470;2023-06-14T12:23:38;18.07;;;17.13;;
19235;SDS011;9752;54.270;12.470;2023-06-14T12:28:41;17.63;;;16.73;;
19235;SDS011;9752;54.270;12.470;2023-06-14T12:33:44;17.67;;;16.77;;
19235;SDS011;9752;54.270;12.470;2023-06-14T12:38:49;17.10;;;15.90;;
19235;SDS011;9752;54.270;12.470;2023-06-14T12:43:53;18.10;;;16.90;;
19235;SDS011;9752;54.270;12.470;2023-06-14T12:48:56;19.20;;;17.83;;
19235;SDS011;9752;54.270;12.470;2023-06-14T12:53:58;17.80;;;16.80;;
19235;SDS011;9752;54.270;12.470;2023-06-14T12:59:00;17.40;;;16.40;;
19235;SDS011;9752;54.270;12.470;2023-06-14T13:04:03;17.13;;;16.17;;
19235;SDS011;9752;54.270;12.470;2023-06-14T13:09:05;17.63;;;16.10;;
19235;SDS011;9752;54.270;12.470;2023-06-14T13:14:08;16.80;;;15.80;;
19235;SDS011;9752;54.270;12.470;2023-06-14T13:19:11;16.73;;;15.70;;
19235;SDS011;9752;54.270;12.470;2023-06-14T13:24:13;16.43;;;15.40;;
19235;SDS011;9752;54.270;12.470;2023-06-14T13:29:15;16.40;;;15.50;;
19235;SDS011;9752;54.270;12.470;2023-06-14T13:34:18;16.40;;;15.70;;
19235;SDS011;9752;54.270;12.470;2023-06-14T13:39:20;16.80;;;15.90;;
19235;SDS011;9752;54.270;12.470;2023-06-14T13:44:22;16.83;;;15.80;;
19235;SDS011;9752;54.270;12.470;2023-06-14T13:49:26;17.20;;;16.10;;
19235;SDS011;9752;54.270;12.470;2023-06-14T13:54:28;16.43;;;15.23;;
19235;SDS011;9752;54.270;12.470;2023-06-14T13:59:29;16.27;;;15.10;;
19235;SDS011;9752;54.270;12.470;2023-06-14T14:04:33;16.63;;;15.83;;
19235;SDS011;9752;54.270;12.470;2023-06-14T14:09:34;16.83;;;15.90;;
19235;SDS011;9752;54.270;12.470;2023-06-14T14:14:37;17.13;;;16.20;;
19235;SDS011;9752;54.270;12.470;2023-06-14T14:19:40;17.03;;;16.00;;
19235;SDS011;9752;54.270;12.470;2023-06-14T14:24:42;17.03;;;16.13;;
19235;SDS011;9752;54.270;12.470;2023-06-14T14:29:43;17.87;;;17.07;;
19235;SDS011;9752;54.270;12.470;2023-06-14T14:34:46;17.63;;;16.73;;
19235;SDS011;9752;54.270;12.470;2023-06-14T14:39:48;17.63;;;16.73;;
19235;SDS011;9752;54.270;12.470;2023-06-14T14:44:49;17.13;;;16.40;;
19235;SDS011;9752;54.270;12.470;2023-06-14T14:49:52;17.87;;;16.80;;
19235;SDS011;9752;54.270;12.470;2023-06-14T14:54:54;17.57;;;16.63;;
19235;SDS011;9752;54.270;12.470;2023-06-14T14:59:56;17.87;;;17.07;;
19235;SDS011;9752;54.270;12.470;2023-06-14T15:04:59;18.00;;;16.83;;
19235;SDS011;9752;54.270;12.470;2023-06-14T15:10:01;17.00;;;16.03;;
19235;SDS011;9752;54.270;12.470;2023-06-14T15:15:03;17.30;;;16.40;;
19235;SDS011;9752;54.270;12.470;2023-06-14T15:20:07;17.00;;;16.20;;
19235;SDS011;9752;54.270;12.470;2023-06-14T15:25:09;17.37;;;16.50;;
19235;SDS011;9752;54.270;12.470;2023-06-14T15:30:11;17.43;;;16.53;;
19235;SDS011;9752;54.270;12.470;2023-06-14T15:35:16;17.07;;;16.13;;
19235;SDS011;9752;54.270;12.470;2023-06-14T15:40:18;17.53;;;16.40;;
19235;SDS011;9752;54.270;12.470;2023-06-14T15:45:20;16.97;;;16.17;;
19235;SDS011;9752;54.270;12.470;2023-06-14T15:50:24;17.73;;;16.77;;
19235;SDS011;9752;54.270;12.470;2023-06-14T15:55:25;16.90;;;16.07;;
19235;SDS011;9752;54.270;12.470;2023-06-14T16:00:27;16.03;;;15.10;;
19235;SDS011;9752;54.270;12.470;2023-06-14T16:05:30;15.90;;;15.10;;
19235;SDS011;9752;54.270;12.470;2023-06-14T16:10:32;16.40;;;15.60;;
19235;SDS011;9752;54.270;12.470;2023-06-14T16:15:33;16.20;;;15.30;;
19235;SDS011;9752;54.270;12.470;2023-06-14T16:20:36;17.17;;;16.17;;
19235;SDS011;9752;54.270;12.470;2023-06-14T16:25:38;16.30;;;15.23;;
19235;SDS011;9752;54.270;12.470;2023-06-14T16:30:40;16.70;;;15.67;;
19235;SDS011;9752;54.270;12.470;2023-06-14T16:35:43;16.63;;;15.73;;
19235;SDS011;9752;54.270;12.470;2023-06-14T16:40:44;17.00;;;15.80;;
19235;SDS011;9752;54.270;12.470;2023-06-14T16:45:46;15.23;;;14.23;;
19235;SDS011;9752;54.270;12.470;2023-06-14T16:50:49;16.13;;;15.03;;
19235;SDS011;9752;54.270;12.470;2023-06-14T16:55:51;16.50;;;15.40;;
19235;SDS011;9752;54.270;12.470;2023-06-14T17:00:53;16.50;;;15.70;;
19235;SDS011;9752;54.270;12.470;2023-06-14T17:05:56;16.77;;;15.77;;
19235;SDS011;9752;54.270;12.470;2023-06-14T17:10:58;16.80;;;15.60;;
19235;SDS011;9752;54.270;12.470;2023-06-14T17:16:00;16.00;;;15.17;;
19235;SDS011;9752;54.270;12.470;2023-06-14T17:21:04;16.20;;;15.20;;
19235;SDS011;9752;54.270;12.470;2023-06-14T17:26:05;16.60;;;15.47;;
19235;SDS011;9752;54.270;12.470;2023-06-14T17:31:07;16.43;;;15.50;;
19235;SDS011;9752;54.270;12.470;2023-06-14T17:36:10;16.57;;;15.67;;
19235;SDS011;9752;54.270;12.470;2023-06-14T17:41:12;16.23;;;15.37;;
19235;SDS011;9752;54.270;12.470;2023-06-14T17:46:14;16.30;;;15.20;;
19235;SDS011;9752;54.270;12.470;2023-06-14T17:51:18;16.90;;;15.30;;
19235;SDS011;9752;54.270;12.470;2023-06-14T17:56:20;15.87;;;14.73;;
19235;SDS011;9752;54.270;12.470;2023-06-14T18:01:22;15.23;;;14.43;;
19235;SDS011;9752;54.270;12.470;2023-06-14T18:06:25;14.73;;;13.90;;
19235;SDS011;9752;54.270;12.470;2023-06-14T18:11:27;15.43;;;14.60;;
19235;SDS011;9752;54.270;12.470;2023-06-14T18:16:30;15.87;;;14.77;;
19235;SDS011;9752;54.270;12.470;2023-06-14T18:21:33;14.70;;;14.00;;
19235;SDS011;9752;54.270;12.470;2023-06-14T18:26:35;16.47;;;15.30;;
19235;SDS011;9752;54.270;12.470;2023-06-14T18:31:37;15.40;;;14.50;;
19235;SDS011;9752;54.270;12.470;2023-06-14T18:36:40;15.37;;;14.57;;
19235;SDS011;9752;54.270;12.470;2023-06-14T18:41:42;14.70;;;14.03;;
19235;SDS011;9752;54.270;12.470;2023-06-14T18:46:43;15.80;;;14.70;;
19235;SDS011;9752;54.270;12.470;2023-06-14T18:51:46;14.90;;;14.30;;
19235;SDS011;9752;54.270;12.470;2023-06-14T18:56:48;15.73;;;14.70;;
19235;SDS011;9752;54.270;12.470;2023-06-14T19:01:50;16.17;;;15.20;;
19235;SDS011;9752;54.270;12.470;2023-06-14T19:06:53;15.47;;;14.57;;
19235;SDS011;9752;54.270;12.470;2023-06-14T19:11:54;15.60;;;14.70;;
19235;SDS011;9752;54.270;12.470;2023-06-14T19:16:56;15.23;;;14.23;;
19235;SDS011;9752;54.270;12.470;2023-06-14T19:21:59;14.90;;;14.00;;
19235;SDS011;9752;54.270;12.470;2023-06-14T19:27:01;15.03;;;14.10;;
19235;SDS011;9752;54.270;12.470;2023-06-14T19:32:03;17.40;;;16.60;;
19235;SDS011;9752;54.270;12.470;2023-06-14T19:37:07;20.07;;;19.10;;
19235;SDS011;9752;54.270;12.470;2023-06-14T19:42:09;19.80;;;18.33;;
19235;SDS011;9752;54.270;12.470;2023-06-14T19:47:11;19.53;;;18.17;;
19235;SDS011;9752;54.270;12.470;2023-06-14T19:52:14;19.57;;;18.47;;
19235;SDS011;9752;54.270;12.470;2023-06-14T19:57:15;18.87;;;17.70;;
19235;SDS011;9752;54.270;12.470;2023-06-14T20:02:17;18.87;;;17.33;;
19235;SDS011;9752;54.270;12.470;2023-06-14T20:07:21;16.83;;;15.93;;
19235;SDS011;9752;54.270;12.470;2023-06-14T20:12:23;16.30;;;15.07;;
19235;SDS011;9752;54.270;12.470;2023-06-14T20:17:25;16.50;;;15.50;;
19235;SDS011;9752;54.270;12.470;2023-06-14T20:22:28;16.33;;;15.23;;
19235;SDS011;9752;54.270;12.470;2023-06-14T20:27:37;14.80;;;13.73;;
19235;SDS011;9752;54.270;12.470;2023-06-14T20:32:39;13.47;;;12.37;;
19235;SDS011;9752;54.270;12.470;2023-06-14T20:37:42;13.00;;;11.90;;
19235;SDS011;9752;54.270;12.470;2023-06-14T20:42:44;12.53;;;11.53;;
19235;SDS011;9752;54.270;12.470;2023-06-14T20:47:46;11.67;;;10.83;;
19235;SDS011;9752;54.270;12.470;2023-06-14T20:52:49;12.47;;;11.33;;
19235;SDS011;9752;54.270;12.470;2023-06-14T20:57:50;12.10;;;11.03;;
19235;SDS011;9752;54.270;12.470;2023-06-14T21:02:53;10.77;;;10.07;;
19235;SDS011;9752;54.270;12.470;2023-06-14T21:07:58;11.17;;;10.27;;
19235;SDS011;9752;54.270;12.470;2023-06-14T21:13:00;10.50;;;9.50;;
19235;SDS011;9752;54.270;12.470;2023-06-14T21:18:01;10.90;;;10.10;;
19235;SDS011;9752;54.270;12.470;2023-06-14T21:23:05;9.80;;;9.00;;
19235;SDS011;9752;54.270;12.470;2023-06-14T21:28:07;10.53;;;9.63;;
19235;SDS011;9752;54.270;12.470;2023-06-14T21:33:09;10.10;;;9.30;;
19235;SDS011;9752;54.270;12.470;2023-06-14T21:38:12;9.90;;;9.13;;
19235;SDS011;9752;54.270;12.470;2023-06-14T21:43:15;9.73;;;8.97;;
19235;SDS011;9752;54.270;12.470;2023-06-14T21:48:16;8.73;;;8.03;;
19235;SDS011;9752;54.270;12.470;2023-06-14T21:53:20;8.73;;;8.03;;
19235;SDS011;9752;54.270;12.470;2023-06-14T21:58:21;9.83;;;8.87;;
19235;SDS011;9752;54.270;12.470;2023-06-14T22:03:23;9.33;;;8.63;;
19235;SDS011;9752;54.270;12.470;2023-06-14T22:08:26;9.77;;;8.90;;
19235;SDS011;9752;54.270;12.470;2023-06-14T22:13:31;8.97;;;8.37;;
19235;SDS011;9752;54.270;12.470;2023-06-14T22:18:34;10.07;;;9.27;;
19235;SDS011;9752;54.270;12.470;2023-06-14T22:23:37;9.67;;;9.00;;
19235;SDS011;9752;54.270;12.470;2023-06-14T22:28:39;9.60;;;8.80;;
19235;SDS011;9752;54.270;12.470;2023-06-14T22:33:43;9.60;;;8.83;;
19235;SDS011;9752;54.270;12.470;2023-06-14T22:38:47;9.93;;;9.00;;
19235;SDS011;9752;54.270;12.470;2023-06-14T22:43:49;9.50;;;8.70;;
19235;SDS011;9752;54.270;12.470;2023-06-14T22:48:51;8.80;;;8.10;;
19235;SDS011;9752;54.270;12.470;2023-06-14T22:53:54;9.23;;;7.63;;
19235;SDS011;9752;54.270;12.470;2023-06-14T22:58:56;8.50;;;7.90;;
19235;SDS011;9752;54.270;12.470;2023-06-14T23:04:02;8.47;;;7.77;;
19235;SDS011;9752;54.270;12.470;2023-06-14T23:09:05;8.87;;;8.07;;
19235;SDS011;9752;54.270;12.470;2023-06-14T23:14:08;11.47;;;8.77;;
19235;SDS011;9752;54.270;12.470;2023-06-14T23:19:10;9.03;;;8.23;;
19235;SDS011;9752;54.270;12.470;2023-06-14T23:24:15;9.23;;;8.23;;
19235;SDS011;9752;54.270;12.470;2023-06-14T23:29:19;9.83;;;8.80;;
19235;SDS011;9752;54.270;12.470;2023-06-14T23:34:23;10.93;;;8.13;;
19235;SDS011;9752;54.270;12.470;2023-06-14T23:39:27;9.10;;;8.10;;
19235;SDS011;9752;54.270;12.470;2023-06-14T23:44:29;8.63;;;7.93;;
19235;SDS011;9752;54.270;12.470;2023-06-14T23:49:36;8.40;;;7.70;;
19235;SDS011;9752;54.270;12.470;2023-06-14T23:54:40;8.93;;;8.07;;
19235;SDS011;9752;54.270;12.470;2023-06-14T23:59:45;8.87;;;8.17;;
